sensor_id;sensor_type;location;lat;lon;timestamp;temperature;humidity
18779;DHT22;9518;51.720;14.384;2023-08-20T00:02:08;20.70;1.00
18779;DHT22;9518;51.720;14.384;2023-08-20T00:04:37;20.70;1.00
18779;DHT22;9518;51.720;14.384;2023-08-20T00:07:07;20.70;1.00
18779;DHT22;9518;51.720;14.384;2023-08-20T00:09:34;20.60;1.00
18779;DHT22;9518;51.720;14.384;2023-08-20T00:12:02;20.50;85.90
18779;DHT22;9518;51.720;14.384;2023-08-20T00:14:52;20.40;99.90
18779;DHT22;9518;51.720;14.384;2023-08-20T00:17:20;20.40;99.90
18779;DHT22;9518;51.720;14.384;2023-08-20T00:19:50;20.30;1.00
18779;DHT22;9518;51.720;14.384;2023-08-20T00:22:20;20.30;1.00
18779;DHT22;9518;51.720;14.384;2023-08-20T00:24:48;20.30;99.90
18779;DHT22;9518;51.720;14.384;2023-08-20T00:27:17;20.30;99.90
18779;DHT22;9518;51.720;14.384;2023-08-20T00:29:49;20.30;99.90
18779;DHT22;9518;51.720;14.384;2023-08-20T00:32:18;20.30;1.00
18779;DHT22;9518;51.720;14.384;2023-08-20T00:34:46;20.40;6.90
18779;DHT22;9518;51.720;14.384;2023-08-20T00:37:14;20.40;58.80
18779;DHT22;9518;51.720;14.384;2023-08-20T00:39:43;20.40;1.00
18779;DHT22;9518;51.720;14.384;2023-08-20T00:42:10;20.40;1.00
18779;DHT22;9518;51.720;14.384;2023-08-20T00:44:39;20.40;1.00
18779;DHT22;9518;51.720;14.384;2023-08-20T00:47:07;20.40;99.90
18779;DHT22;9518;51.720;14.384;2023-08-20T00:49:36;20.50;1.00
18779;DHT22;9518;51.720;14.384;2023-08-20T00:52:04;20.50;1.00
18779;DHT22;9518;51.720;14.384;2023-08-20T00:54:36;20.60;99.90
18779;DHT22;9518;51.720;14.384;2023-08-20T00:57:06;20.70;99.90
18779;DHT22;9518;51.720;14.384;2023-08-20T00:59:35;20.70;1.00
18779;DHT22;9518;51.720;14.384;2023-08-20T01:02:03;20.80;1.00
18779;DHT22;9518;51.720;14.384;2023-08-20T01:04:31;20.70;1.00
18779;DHT22;9518;51.720;14.384;2023-08-20T01:07:04;20.70;1.00
18779;DHT22;9518;51.720;14.384;2023-08-20T01:09:43;20.70;1.00
18779;DHT22;9518;51.720;14.384;2023-08-20T01:12:16;20.70;1.00
18779;DHT22;9518;51.720;14.384;2023-08-20T01:14:45;20.70;99.90
18779;DHT22;9518;51.720;14.384;2023-08-20T01:17:12;20.70;1.00
18779;DHT22;9518;51.720;14.384;2023-08-20T01:19:39;20.70;99.90
18779;DHT22;9518;51.720;14.384;2023-08-20T01:22:21;20.80;74.10
18779;DHT22;9518;51.720;14.384;2023-08-20T01:25:02;20.80;1.00
18779;DHT22;9518;51.720;14.384;2023-08-20T01:27:42;20.70;1.00
18779;DHT22;9518;51.720;14.384;2023-08-20T01:30:15;20.70;99.90
18779;DHT22;9518;51.720;14.384;2023-08-20T01:32:42;20.70;1.00
18779;DHT22;9518;51.720;14.384;2023-08-20T01:35:12;20.70;1.00
18779;DHT22;9518;51.720;14.384;2023-08-20T01:37:41;20.70;1.00
18779;DHT22;9518;51.720;14.384;2023-08-20T01:40:09;20.70;1.00
18779;DHT22;9518;51.720;14.384;2023-08-20T01:42:36;20.70;99.90
18779;DHT22;9518;51.720;14.384;2023-08-20T01:45:04;20.70;1.00
18779;DHT22;9518;51.720;14.384;2023-08-20T01:47:34;20.70;1.00
18779;DHT22;9518;51.720;14.384;2023-08-20T01:50:01;20.70;99.90
18779;DHT22;9518;51.720;14.384;2023-08-20T01:52:28;20.70;1.00
18779;DHT22;9518;51.720;14.384;2023-08-20T01:54:56;20.80;1.00
18779;DHT22;9518;51.720;14.384;2023-08-20T01:57:23;20.80;1.00
18779;DHT22;9518;51.720;14.384;2023-08-20T01:59:50;20.90;1.00
18779;DHT22;9518;51.720;14.384;2023-08-20T02:02:17;20.90;1.00
18779;DHT22;9518;51.720;14.384;2023-08-20T02:04:47;20.80;99.90
18779;DHT22;9518;51.720;14.384;2023-08-20T02:07:15;20.80;1.00
18779;DHT22;9518;51.720;14.384;2023-08-20T02:09:42;20.90;1.00
18779;DHT22;9518;51.720;14.384;2023-08-20T02:12:09;20.90;1.00
18779;DHT22;9518;51.720;14.384;2023-08-20T02:14:37;20.90;1.00
18779;DHT22;9518;51.720;14.384;2023-08-20T02:17:04;20.90;99.90
18779;DHT22;9518;51.720;14.384;2023-08-20T02:19:31;20.90;1.00
18779;DHT22;9518;51.720;14.384;2023-08-20T02:21:59;20.90;1.00
18779;DHT22;9518;51.720;14.384;2023-08-20T02:24:26;21.00;1.00
18779;DHT22;9518;51.720;14.384;2023-08-20T02:26:55;20.90;99.90
18779;DHT22;9518;51.720;14.384;2023-08-20T02:29:22;20.90;1.00
18779;DHT22;9518;51.720;14.384;2023-08-20T02:31:49;20.90;1.00
18779;DHT22;9518;51.720;14.384;2023-08-20T02:34:16;20.90;1.00
18779;DHT22;9518;51.720;14.384;2023-08-20T02:36:45;20.80;1.00
18779;DHT22;9518;51.720;14.384;2023-08-20T02:39:15;20.70;1.00
18779;DHT22;9518;51.720;14.384;2023-08-20T02:41:43;20.70;1.00
18779;DHT22;9518;51.720;14.384;2023-08-20T02:44:10;20.70;99.90
18779;DHT22;9518;51.720;14.384;2023-08-20T02:46:37;20.60;1.00
18779;DHT22;9518;51.720;14.384;2023-08-20T02:49:06;20.50;99.90
18779;DHT22;9518;51.720;14.384;2023-08-20T02:51:33;20.50;1.00
18779;DHT22;9518;51.720;14.384;2023-08-20T02:54:00;20.40;1.00
18779;DHT22;9518;51.720;14.384;2023-08-20T02:56:29;20.40;1.00
18779;DHT22;9518;51.720;14.384;2023-08-20T02:58:57;20.30;1.00
18779;DHT22;9518;51.720;14.384;2023-08-20T03:01:25;20.40;1.00
18779;DHT22;9518;51.720;14.384;2023-08-20T03:03:53;20.30;1.00
18779;DHT22;9518;51.720;14.384;2023-08-20T03:06:20;20.30;1.00
18779;DHT22;9518;51.720;14.384;2023-08-20T03:08:47;20.30;1.00
18779;DHT22;9518;51.720;14.384;2023-08-20T03:11:14;20.30;1.00
18779;DHT22;9518;51.720;14.384;2023-08-20T03:13:44;20.40;1.00
18779;DHT22;9518;51.720;14.384;2023-08-20T03:16:14;20.30;1.00
18779;DHT22;9518;51.720;14.384;2023-08-20T03:18:41;20.20;1.00
18779;DHT22;9518;51.720;14.384;2023-08-20T03:21:08;20.20;1.00
18779;DHT22;9518;51.720;14.384;2023-08-20T03:23:36;20.10;1.00
18779;DHT22;9518;51.720;14.384;2023-08-20T03:26:03;20.00;1.00
18779;DHT22;9518;51.720;14.384;2023-08-20T03:28:30;20.00;1.00
18779;DHT22;9518;51.720;14.384;2023-08-20T03:31:03;20.00;1.00
18779;DHT22;9518;51.720;14.384;2023-08-20T03:33:30;19.90;2.60
18779;DHT22;9518;51.720;14.384;2023-08-20T03:35:57;19.90;67.20
18779;DHT22;9518;51.720;14.384;2023-08-20T03:38:24;19.80;25.00
18779;DHT22;9518;51.720;14.384;2023-08-20T03:40:54;19.80;37.00
18779;DHT22;9518;51.720;14.384;2023-08-20T03:43:22;19.80;99.90
18779;DHT22;9518;51.720;14.384;2023-08-20T03:45:50;19.80;99.90
18779;DHT22;9518;51.720;14.384;2023-08-20T03:48:19;19.90;99.90
18779;DHT22;9518;51.720;14.384;2023-08-20T03:50:46;19.90;99.90
18779;DHT22;9518;51.720;14.384;2023-08-20T03:53:15;19.90;99.90
18779;DHT22;9518;51.720;14.384;2023-08-20T03:55:46;20.00;99.90
18779;DHT22;9518;51.720;14.384;2023-08-20T03:58:16;20.10;99.90
18779;DHT22;9518;51.720;14.384;2023-08-20T04:00:44;20.20;99.90
18779;DHT22;9518;51.720;14.384;2023-08-20T04:03:11;20.30;1.00
18779;DHT22;9518;51.720;14.384;2023-08-20T04:05:41;20.50;1.00
18779;DHT22;9518;51.720;14.384;2023-08-20T04:08:08;20.60;1.00
18779;DHT22;9518;51.720;14.384;2023-08-20T04:10:35;20.60;1.00
18779;DHT22;9518;51.720;14.384;2023-08-20T04:13:02;20.60;1.00
18779;DHT22;9518;51.720;14.384;2023-08-20T04:15:29;20.80;1.00
18779;DHT22;9518;51.720;14.384;2023-08-20T04:17:56;20.90;1.00
18779;DHT22;9518;51.720;14.384;2023-08-20T04:20:23;20.90;99.90
18779;DHT22;9518;51.720;14.384;2023-08-20T04:22:51;21.00;99.90
18779;DHT22;9518;51.720;14.384;2023-08-20T04:25:19;21.00;91.40
18779;DHT22;9518;51.720;14.384;2023-08-20T04:27:46;21.10;83.60
18779;DHT22;9518;51.720;14.384;2023-08-20T04:30:14;21.10;99.90
18779;DHT22;9518;51.720;14.384;2023-08-20T04:32:41;21.10;99.90
18779;DHT22;9518;51.720;14.384;2023-08-20T04:35:08;21.20;1.00
18779;DHT22;9518;51.720;14.384;2023-08-20T04:37:35;21.20;1.00
18779;DHT22;9518;51.720;14.384;2023-08-20T04:40:05;21.10;1.00
18779;DHT22;9518;51.720;14.384;2023-08-20T04:42:33;21.20;1.00
18779;DHT22;9518;51.720;14.384;2023-08-20T04:45:01;21.20;1.00
18779;DHT22;9518;51.720;14.384;2023-08-20T04:47:29;21.20;1.00
18779;DHT22;9518;51.720;14.384;2023-08-20T04:49:57;21.20;1.00
18779;DHT22;9518;51.720;14.384;2023-08-20T04:52:25;21.30;1.00
18779;DHT22;9518;51.720;14.384;2023-08-20T04:54:53;21.30;1.00
18779;DHT22;9518;51.720;14.384;2023-08-20T04:57:22;21.20;1.00
18779;DHT22;9518;51.720;14.384;2023-08-20T04:59:51;21.30;1.00
18779;DHT22;9518;51.720;14.384;2023-08-20T05:02:18;21.30;1.00
18779;DHT22;9518;51.720;14.384;2023-08-20T05:04:45;21.40;1.00
18779;DHT22;9518;51.720;14.384;2023-08-20T05:07:13;21.50;1.00
18779;DHT22;9518;51.720;14.384;2023-08-20T05:09:43;21.60;1.00
18779;DHT22;9518;51.720;14.384;2023-08-20T05:12:10;21.80;1.00
18779;DHT22;9518;51.720;14.384;2023-08-20T05:14:41;22.10;99.90
18779;DHT22;9518;51.720;14.384;2023-08-20T05:17:08;22.20;1.00
18779;DHT22;9518;51.720;14.384;2023-08-20T05:19:38;22.30;99.90
18779;DHT22;9518;51.720;14.384;2023-08-20T05:22:06;22.30;1.00
18779;DHT22;9518;51.720;14.384;2023-08-20T05:24:34;22.40;99.90
18779;DHT22;9518;51.720;14.384;2023-08-20T05:27:06;22.50;1.00
18779;DHT22;9518;51.720;14.384;2023-08-20T05:29:34;22.70;1.00
18779;DHT22;9518;51.720;14.384;2023-08-20T05:32:04;22.90;1.00
18779;DHT22;9518;51.720;14.384;2023-08-20T05:34:31;23.10;1.00
18779;DHT22;9518;51.720;14.384;2023-08-20T05:36:59;23.20;99.90
18779;DHT22;9518;51.720;14.384;2023-08-20T05:39:30;23.40;92.00
18779;DHT22;9518;51.720;14.384;2023-08-20T05:41:57;23.50;99.90
18779;DHT22;9518;51.720;14.384;2023-08-20T05:44:24;23.70;1.00
18779;DHT22;9518;51.720;14.384;2023-08-20T05:46:51;23.60;1.00
18779;DHT22;9518;51.720;14.384;2023-08-20T05:49:19;23.60;1.00
18779;DHT22;9518;51.720;14.384;2023-08-20T05:51:46;23.50;1.00
18779;DHT22;9518;51.720;14.384;2023-08-20T05:54:13;23.30;1.00
18779;DHT22;9518;51.720;14.384;2023-08-20T05:56:40;23.30;1.00
18779;DHT22;9518;51.720;14.384;2023-08-20T05:59:07;23.30;22.50
18779;DHT22;9518;51.720;14.384;2023-08-20T06:01:34;23.20;1.00
18779;DHT22;9518;51.720;14.384;2023-08-20T06:04:02;23.20;1.00
18779;DHT22;9518;51.720;14.384;2023-08-20T06:06:30;23.20;1.00
18779;DHT22;9518;51.720;14.384;2023-08-20T06:08:57;23.30;99.90
18779;DHT22;9518;51.720;14.384;2023-08-20T06:11:24;23.60;1.00
18779;DHT22;9518;51.720;14.384;2023-08-20T06:13:52;23.90;1.00
18779;DHT22;9518;51.720;14.384;2023-08-20T06:16:19;24.10;99.90
18779;DHT22;9518;51.720;14.384;2023-08-20T06:18:46;24.20;99.90
18779;DHT22;9518;51.720;14.384;2023-08-20T06:21:13;24.30;1.00
18779;DHT22;9518;51.720;14.384;2023-08-20T06:23:41;24.60;1.00
18779;DHT22;9518;51.720;14.384;2023-08-20T06:26:09;24.70;1.00
18779;DHT22;9518;51.720;14.384;2023-08-20T06:28:36;25.00;1.00
18779;DHT22;9518;51.720;14.384;2023-08-20T06:31:03;25.20;99.90
18779;DHT22;9518;51.720;14.384;2023-08-20T06:33:31;25.40;92.70
18779;DHT22;9518;51.720;14.384;2023-08-20T06:35:58;25.80;1.00
18779;DHT22;9518;51.720;14.384;2023-08-20T06:38:26;26.10;1.00
18779;DHT22;9518;51.720;14.384;2023-08-20T06:40:56;26.30;1.00
18779;DHT22;9518;51.720;14.384;2023-08-20T06:43:23;26.30;1.00
18779;DHT22;9518;51.720;14.384;2023-08-20T06:45:50;26.20;1.00
18779;DHT22;9518;51.720;14.384;2023-08-20T06:48:18;26.10;1.00
18779;DHT22;9518;51.720;14.384;2023-08-20T06:50:47;26.20;99.90
18779;DHT22;9518;51.720;14.384;2023-08-20T06:53:14;26.30;1.00
18779;DHT22;9518;51.720;14.384;2023-08-20T06:55:42;26.20;1.00
18779;DHT22;9518;51.720;14.384;2023-08-20T06:58:10;26.00;1.00
18779;DHT22;9518;51.720;14.384;2023-08-20T07:00:37;26.10;1.00
18779;DHT22;9518;51.720;14.384;2023-08-20T07:03:05;26.00;1.00
18779;DHT22;9518;51.720;14.384;2023-08-20T07:05:32;26.00;1.00
18779;DHT22;9518;51.720;14.384;2023-08-20T07:07:59;25.90;1.00
18779;DHT22;9518;51.720;14.384;2023-08-20T07:10:26;25.90;1.00
18779;DHT22;9518;51.720;14.384;2023-08-20T07:12:54;26.00;1.00
18779;DHT22;9518;51.720;14.384;2023-08-20T07:15:23;26.10;1.00
18779;DHT22;9518;51.720;14.384;2023-08-20T07:17:50;26.20;1.00
18779;DHT22;9518;51.720;14.384;2023-08-20T07:20:19;26.20;1.00
18779;DHT22;9518;51.720;14.384;2023-08-20T07:22:46;26.20;1.00
18779;DHT22;9518;51.720;14.384;2023-08-20T07:25:13;26.30;1.00
18779;DHT22;9518;51.720;14.384;2023-08-20T07:27:40;26.40;1.00
18779;DHT22;9518;51.720;14.384;2023-08-20T07:30:11;26.50;1.00
18779;DHT22;9518;51.720;14.384;2023-08-20T07:32:40;26.70;1.00
18779;DHT22;9518;51.720;14.384;2023-08-20T07:35:08;26.70;1.00
18779;DHT22;9518;51.720;14.384;2023-08-20T07:37:35;26.70;1.00
18779;DHT22;9518;51.720;14.384;2023-08-20T07:40:04;26.60;1.00
18779;DHT22;9518;51.720;14.384;2023-08-20T07:42:32;26.50;1.00
18779;DHT22;9518;51.720;14.384;2023-08-20T07:44:59;26.40;1.00
18779;DHT22;9518;51.720;14.384;2023-08-20T07:47:28;26.40;1.00
18779;DHT22;9518;51.720;14.384;2023-08-20T07:50:02;26.30;1.00
18779;DHT22;9518;51.720;14.384;2023-08-20T07:52:30;26.40;1.00
18779;DHT22;9518;51.720;14.384;2023-08-20T07:54:57;26.70;1.00
18779;DHT22;9518;51.720;14.384;2023-08-20T07:57:24;26.80;1.00
18779;DHT22;9518;51.720;14.384;2023-08-20T07:59:52;26.70;1.00
18779;DHT22;9518;51.720;14.384;2023-08-20T08:02:23;26.50;1.00
18779;DHT22;9518;51.720;14.384;2023-08-20T08:04:50;26.50;1.00
18779;DHT22;9518;51.720;14.384;2023-08-20T08:07:19;26.40;1.00
18779;DHT22;9518;51.720;14.384;2023-08-20T08:09:47;26.30;1.00
18779;DHT22;9518;51.720;14.384;2023-08-20T08:12:17;26.40;1.00
18779;DHT22;9518;51.720;14.384;2023-08-20T08:14:46;26.40;1.00
18779;DHT22;9518;51.720;14.384;2023-08-20T08:17:14;26.50;1.00
18779;DHT22;9518;51.720;14.384;2023-08-20T08:19:53;26.40;1.00
18779;DHT22;9518;51.720;14.384;2023-08-20T08:22:26;26.30;1.00
18779;DHT22;9518;51.720;14.384;2023-08-20T08:24:54;26.30;1.00
18779;DHT22;9518;51.720;14.384;2023-08-20T08:27:21;26.20;1.00
18779;DHT22;9518;51.720;14.384;2023-08-20T08:29:50;26.20;1.00
18779;DHT22;9518;51.720;14.384;2023-08-20T08:32:17;26.10;1.00
18779;DHT22;9518;51.720;14.384;2023-08-20T08:34:44;26.20;99.90
18779;DHT22;9518;51.720;14.384;2023-08-20T08:37:11;26.30;1.00
18779;DHT22;9518;51.720;14.384;2023-08-20T08:39:42;26.50;1.00
18779;DHT22;9518;51.720;14.384;2023-08-20T08:42:10;26.70;1.00
18779;DHT22;9518;51.720;14.384;2023-08-20T08:44:38;26.80;1.00
18779;DHT22;9518;51.720;14.384;2023-08-20T08:47:05;26.80;1.00
18779;DHT22;9518;51.720;14.384;2023-08-20T08:49:34;26.80;1.00
18779;DHT22;9518;51.720;14.384;2023-08-20T08:52:04;26.60;1.00
18779;DHT22;9518;51.720;14.384;2023-08-20T08:54:33;26.60;1.00
18779;DHT22;9518;51.720;14.384;2023-08-20T08:57:02;26.60;1.00
18779;DHT22;9518;51.720;14.384;2023-08-20T08:59:29;26.70;99.90
18779;DHT22;9518;51.720;14.384;2023-08-20T09:01:58;26.60;99.90
18779;DHT22;9518;51.720;14.384;2023-08-20T09:04:25;26.70;1.00
18779;DHT22;9518;51.720;14.384;2023-08-20T09:06:55;26.70;1.00
18779;DHT22;9518;51.720;14.384;2023-08-20T09:09:23;26.50;1.00
18779;DHT22;9518;51.720;14.384;2023-08-20T09:11:53;26.60;1.00
18779;DHT22;9518;51.720;14.384;2023-08-20T09:14:27;26.90;1.00
18779;DHT22;9518;51.720;14.384;2023-08-20T09:16:55;27.20;1.00
18779;DHT22;9518;51.720;14.384;2023-08-20T09:19:23;27.50;1.00
18779;DHT22;9518;51.720;14.384;2023-08-20T09:21:50;27.60;1.00
18779;DHT22;9518;51.720;14.384;2023-08-20T09:24:26;27.90;1.00
18779;DHT22;9518;51.720;14.384;2023-08-20T09:26:59;28.20;1.00
18779;DHT22;9518;51.720;14.384;2023-08-20T09:29:27;28.30;1.00
18779;DHT22;9518;51.720;14.384;2023-08-20T09:32:03;28.30;99.90
18779;DHT22;9518;51.720;14.384;2023-08-20T09:34:37;28.30;1.00
18779;DHT22;9518;51.720;14.384;2023-08-20T09:37:08;28.20;99.90
18779;DHT22;9518;51.720;14.384;2023-08-20T09:39:35;28.40;99.90
18779;DHT22;9518;51.720;14.384;2023-08-20T09:42:04;28.60;99.90
18779;DHT22;9518;51.720;14.384;2023-08-20T09:44:35;28.90;99.90
18779;DHT22;9518;51.720;14.384;2023-08-20T09:47:06;29.20;1.00
18779;DHT22;9518;51.720;14.384;2023-08-20T09:49:40;29.40;1.00
18779;DHT22;9518;51.720;14.384;2023-08-20T09:52:08;29.50;1.00
18779;DHT22;9518;51.720;14.384;2023-08-20T09:54:50;29.40;21.40
18779;DHT22;9518;51.720;14.384;2023-08-20T09:57:27;29.20;1.00
18779;DHT22;9518;51.720;14.384;2023-08-20T10:00:00;29.00;1.00
18779;DHT22;9518;51.720;14.384;2023-08-20T10:02:35;28.70;9.60
18779;DHT22;9518;51.720;14.384;2023-08-20T10:05:08;28.30;1.00
18779;DHT22;9518;51.720;14.384;2023-08-20T10:07:38;28.10;1.00
18779;DHT22;9518;51.720;14.384;2023-08-20T10:10:12;28.00;1.00
18779;DHT22;9518;51.720;14.384;2023-08-20T10:12:45;28.00;1.00
18779;DHT22;9518;51.720;14.384;2023-08-20T10:15:15;28.20;1.00
18779;DHT22;9518;51.720;14.384;2023-08-20T10:17:44;28.40;1.00
18779;DHT22;9518;51.720;14.384;2023-08-20T10:20:13;28.80;1.00
18779;DHT22;9518;51.720;14.384;2023-08-20T10:22:42;29.30;3.70
18779;DHT22;9518;51.720;14.384;2023-08-20T10:25:11;29.80;48.50
18779;DHT22;9518;51.720;14.384;2023-08-20T10:27:39;30.10;51.70
18779;DHT22;9518;51.720;14.384;2023-08-20T10:30:09;30.30;50.60
18779;DHT22;9518;51.720;14.384;2023-08-20T10:32:48;30.70;87.60
18779;DHT22;9518;51.720;14.384;2023-08-20T10:35:17;31.30;83.70
18779;DHT22;9518;51.720;14.384;2023-08-20T10:38:04;31.60;81.10
18779;DHT22;9518;51.720;14.384;2023-08-20T10:40:47;31.90;81.40
18779;DHT22;9518;51.720;14.384;2023-08-20T10:43:32;32.30;74.60
18779;DHT22;9518;51.720;14.384;2023-08-20T10:46:08;32.50;77.20
18779;DHT22;9518;51.720;14.384;2023-08-20T10:48:38;33.10;76.20
18779;DHT22;9518;51.720;14.384;2023-08-20T10:51:09;34.20;70.50
18779;DHT22;9518;51.720;14.384;2023-08-20T10:53:38;34.60;68.20
18779;DHT22;9518;51.720;14.384;2023-08-20T10:56:12;34.70;64.00
18779;DHT22;9518;51.720;14.384;2023-08-20T10:58:45;34.40;67.40
18779;DHT22;9518;51.720;14.384;2023-08-20T11:01:18;33.60;65.80
18779;DHT22;9518;51.720;14.384;2023-08-20T11:03:48;32.70;69.00
18779;DHT22;9518;51.720;14.384;2023-08-20T11:06:16;32.10;73.90
18779;DHT22;9518;51.720;14.384;2023-08-20T11:08:44;31.40;75.00
18779;DHT22;9518;51.720;14.384;2023-08-20T11:11:12;31.50;77.60
18779;DHT22;9518;51.720;14.384;2023-08-20T11:13:41;31.50;75.00
18779;DHT22;9518;51.720;14.384;2023-08-20T11:16:10;31.00;80.10
18779;DHT22;9518;51.720;14.384;2023-08-20T11:18:37;30.70;80.90
18779;DHT22;9518;51.720;14.384;2023-08-20T11:21:08;30.60;80.20
18779;DHT22;9518;51.720;14.384;2023-08-20T11:23:41;31.00;81.00
18779;DHT22;9518;51.720;14.384;2023-08-20T11:26:12;31.80;74.50
18779;DHT22;9518;51.720;14.384;2023-08-20T11:28:45;32.90;72.70
18779;DHT22;9518;51.720;14.384;2023-08-20T11:31:13;33.30;71.30
18779;DHT22;9518;51.720;14.384;2023-08-20T11:33:40;33.40;68.40
18779;DHT22;9518;51.720;14.384;2023-08-20T11:36:09;33.80;68.00
18779;DHT22;9518;51.720;14.384;2023-08-20T11:38:37;34.50;68.10
18779;DHT22;9518;51.720;14.384;2023-08-20T11:41:04;35.00;62.50
18779;DHT22;9518;51.720;14.384;2023-08-20T11:43:32;34.40;64.40
18779;DHT22;9518;51.720;14.384;2023-08-20T11:46:00;34.30;59.80
18779;DHT22;9518;51.720;14.384;2023-08-20T11:48:27;34.90;58.80
18779;DHT22;9518;51.720;14.384;2023-08-20T11:50:57;34.90;58.30
18779;DHT22;9518;51.720;14.384;2023-08-20T11:53:28;36.10;57.40
18779;DHT22;9518;51.720;14.384;2023-08-20T11:55:56;36.40;55.00
18779;DHT22;9518;51.720;14.384;2023-08-20T11:58:24;37.00;51.50
18779;DHT22;9518;51.720;14.384;2023-08-20T12:00:53;37.10;54.00
18779;DHT22;9518;51.720;14.384;2023-08-20T12:03:20;37.10;52.70
18779;DHT22;9518;51.720;14.384;2023-08-20T12:05:47;36.40;55.10
18779;DHT22;9518;51.720;14.384;2023-08-20T12:08:15;36.00;54.50
18779;DHT22;9518;51.720;14.384;2023-08-20T12:10:45;35.60;55.50
18779;DHT22;9518;51.720;14.384;2023-08-20T12:13:12;34.90;57.50
18779;DHT22;9518;51.720;14.384;2023-08-20T12:15:40;34.30;59.70
18779;DHT22;9518;51.720;14.384;2023-08-20T12:18:07;33.90;59.60
18779;DHT22;9518;51.720;14.384;2023-08-20T12:20:36;33.40;60.60
18779;DHT22;9518;51.720;14.384;2023-08-20T12:23:05;32.90;63.80
18779;DHT22;9518;51.720;14.384;2023-08-20T12:25:34;32.60;64.70
18779;DHT22;9518;51.720;14.384;2023-08-20T12:28:04;32.40;66.10
18779;DHT22;9518;51.720;14.384;2023-08-20T12:30:34;32.30;67.60
18779;DHT22;9518;51.720;14.384;2023-08-20T12:33:05;33.10;67.30
18779;DHT22;9518;51.720;14.384;2023-08-20T12:35:32;33.80;64.00
18779;DHT22;9518;51.720;14.384;2023-08-20T12:37:59;34.20;60.30
18779;DHT22;9518;51.720;14.384;2023-08-20T12:40:28;35.10;60.00
18779;DHT22;9518;51.720;14.384;2023-08-20T12:42:55;35.50;57.80
18779;DHT22;9518;51.720;14.384;2023-08-20T12:45:23;36.00;59.00
18779;DHT22;9518;51.720;14.384;2023-08-20T12:47:51;37.10;54.60
18779;DHT22;9518;51.720;14.384;2023-08-20T12:50:19;36.90;53.70
18779;DHT22;9518;51.720;14.384;2023-08-20T12:52:46;36.90;54.00
18779;DHT22;9518;51.720;14.384;2023-08-20T12:55:16;37.10;52.80
18779;DHT22;9518;51.720;14.384;2023-08-20T12:57:53;37.10;53.90
18779;DHT22;9518;51.720;14.384;2023-08-20T13:00:24;37.10;53.30
18779;DHT22;9518;51.720;14.384;2023-08-20T13:02:52;37.30;49.50
18779;DHT22;9518;51.720;14.384;2023-08-20T13:05:21;37.40;51.10
18779;DHT22;9518;51.720;14.384;2023-08-20T13:07:49;37.70;48.50
18779;DHT22;9518;51.720;14.384;2023-08-20T13:10:18;37.90;48.90
18779;DHT22;9518;51.720;14.384;2023-08-20T13:12:51;38.00;47.80
18779;DHT22;9518;51.720;14.384;2023-08-20T13:15:20;38.30;46.90
18779;DHT22;9518;51.720;14.384;2023-08-20T13:17:53;38.40;48.40
18779;DHT22;9518;51.720;14.384;2023-08-20T13:20:21;38.10;46.10
18779;DHT22;9518;51.720;14.384;2023-08-20T13:22:49;37.60;47.40
18779;DHT22;9518;51.720;14.384;2023-08-20T13:25:17;37.00;48.00
18779;DHT22;9518;51.720;14.384;2023-08-20T13:27:47;37.00;49.60
18779;DHT22;9518;51.720;14.384;2023-08-20T13:30:14;37.60;47.90
18779;DHT22;9518;51.720;14.384;2023-08-20T13:32:42;38.20;48.30
18779;DHT22;9518;51.720;14.384;2023-08-20T13:35:11;38.60;45.50
18779;DHT22;9518;51.720;14.384;2023-08-20T13:37:40;38.40;45.30
18779;DHT22;9518;51.720;14.384;2023-08-20T13:40:08;38.30;44.60
18779;DHT22;9518;51.720;14.384;2023-08-20T13:42:36;38.60;46.30
18779;DHT22;9518;51.720;14.384;2023-08-20T13:45:04;38.40;46.10
18779;DHT22;9518;51.720;14.384;2023-08-20T13:47:31;37.00;46.60
18779;DHT22;9518;51.720;14.384;2023-08-20T13:49:58;35.70;49.80
18779;DHT22;9518;51.720;14.384;2023-08-20T13:52:27;34.70;52.80
18779;DHT22;9518;51.720;14.384;2023-08-20T13:54:54;33.90;53.60
18779;DHT22;9518;51.720;14.384;2023-08-20T13:57:21;33.30;55.50
18779;DHT22;9518;51.720;14.384;2023-08-20T13:59:48;33.50;56.10
18779;DHT22;9518;51.720;14.384;2023-08-20T14:02:15;33.40;54.50
18779;DHT22;9518;51.720;14.384;2023-08-20T14:04:42;33.40;56.30
18779;DHT22;9518;51.720;14.384;2023-08-20T14:07:09;34.70;54.00
18779;DHT22;9518;51.720;14.384;2023-08-20T14:09:38;35.90;51.70
18779;DHT22;9518;51.720;14.384;2023-08-20T14:12:06;37.10;47.90
18779;DHT22;9518;51.720;14.384;2023-08-20T14:14:33;37.30;47.70
18779;DHT22;9518;51.720;14.384;2023-08-20T14:17:00;38.00;47.50
18779;DHT22;9518;51.720;14.384;2023-08-20T14:19:37;37.60;47.10
18779;DHT22;9518;51.720;14.384;2023-08-20T14:22:06;37.30;47.30
18779;DHT22;9518;51.720;14.384;2023-08-20T14:24:33;37.40;46.70
18779;DHT22;9518;51.720;14.384;2023-08-20T14:27:04;37.50;48.00
18779;DHT22;9518;51.720;14.384;2023-08-20T14:29:33;37.70;45.80
18779;DHT22;9518;51.720;14.384;2023-08-20T14:32:00;37.50;46.70
18779;DHT22;9518;51.720;14.384;2023-08-20T14:34:27;38.00;46.50
18779;DHT22;9518;51.720;14.384;2023-08-20T14:36:54;38.30;47.30
18779;DHT22;9518;51.720;14.384;2023-08-20T14:39:21;38.80;45.00
18779;DHT22;9518;51.720;14.384;2023-08-20T14:41:49;39.40;45.70
18779;DHT22;9518;51.720;14.384;2023-08-20T14:44:17;39.40;43.60
18779;DHT22;9518;51.720;14.384;2023-08-20T14:46:46;39.60;42.60
18779;DHT22;9518;51.720;14.384;2023-08-20T14:49:14;40.10;41.90
18779;DHT22;9518;51.720;14.384;2023-08-20T14:51:42;39.90;41.20
18779;DHT22;9518;51.720;14.384;2023-08-20T14:54:09;39.50;42.00
18779;DHT22;9518;51.720;14.384;2023-08-20T14:56:36;40.10;41.50
18779;DHT22;9518;51.720;14.384;2023-08-20T14:59:03;40.00;43.30
18779;DHT22;9518;51.720;14.384;2023-08-20T15:01:32;39.70;41.80
18779;DHT22;9518;51.720;14.384;2023-08-20T15:04:02;40.30;40.80
18779;DHT22;9518;51.720;14.384;2023-08-20T15:06:29;40.00;40.20
18779;DHT22;9518;51.720;14.384;2023-08-20T15:08:57;40.10;39.80
18779;DHT22;9518;51.720;14.384;2023-08-20T15:11:24;39.70;41.60
18779;DHT22;9518;51.720;14.384;2023-08-20T15:13:53;40.10;41.80
18779;DHT22;9518;51.720;14.384;2023-08-20T15:16:20;40.00;39.70
18779;DHT22;9518;51.720;14.384;2023-08-20T15:18:54;40.10;41.10
18779;DHT22;9518;51.720;14.384;2023-08-20T15:21:22;39.80;40.20
18779;DHT22;9518;51.720;14.384;2023-08-20T15:23:49;39.30;40.60
18779;DHT22;9518;51.720;14.384;2023-08-20T15:26:16;39.40;40.60
18779;DHT22;9518;51.720;14.384;2023-08-20T15:28:43;39.10;39.80
18779;DHT22;9518;51.720;14.384;2023-08-20T15:31:10;38.70;40.30
18779;DHT22;9518;51.720;14.384;2023-08-20T15:33:37;38.70;41.10
18779;DHT22;9518;51.720;14.384;2023-08-20T15:36:07;38.40;41.50
18779;DHT22;9518;51.720;14.384;2023-08-20T15:38:35;37.50;41.00
18779;DHT22;9518;51.720;14.384;2023-08-20T15:41:02;37.40;41.60
18779;DHT22;9518;51.720;14.384;2023-08-20T15:43:29;37.20;40.80
18779;DHT22;9518;51.720;14.384;2023-08-20T15:45:59;36.90;42.40
18779;DHT22;9518;51.720;14.384;2023-08-20T15:48:28;36.90;42.60